SWA948 PHOG-KSAN
Flight info
| Callsign | SWA948 |
|---|---|
| Flight time | 5h 4m |
| Altitude | 37000 |
| Route | EBBER R577 ETECO FOOTS R578 FICKY C1177 SXC COMIX2 |
| Aircraft | B737/M-SDE2E3FGHIRWXY/LB1 |
Departure
| Time | 2026-05-09 11:05 |
|---|---|
| Airport | Kahului International Airport (PHOG) |
Arrival
| Time | 2026-05-09 16:09 |
|---|---|
| Airport | San Diego International Airport (KSAN) |
| Time | Latitude | Longitude | Altitude | Speed | Heading |
|---|---|---|---|---|---|
| 2026-05-09 10:58 | 20.89185 | -156.43669 | 67 ft | 2 kts | 305° |
| 2026-05-09 10:59 | 20.89176 | -156.43655 | 67 ft | 1 kts | 305° |
| 2026-05-09 10:59 | 20.89171 | -156.43648 | 68 ft | 2 kts | 296° |
| 2026-05-09 10:59 | 20.89167 | -156.43633 | 69 ft | 2 kts | 274° |
| 2026-05-09 10:59 | 20.89168 | -156.43616 | 69 ft | 2 kts | 252° |
| 2026-05-09 11:00 | 20.89175 | -156.43602 | 70 ft | 2 kts | 232° |
| 2026-05-09 11:00 | 20.89182 | -156.43594 | 70 ft | 0 kts | 217° |
| 2026-05-09 11:00 | 20.89187 | -156.43590 | 70 ft | 0 kts | 214° |
| 2026-05-09 11:02 | 20.89184 | -156.43593 | 70 ft | 2 kts | 215° |
| 2026-05-09 11:02 | 20.89150 | -156.43619 | 70 ft | 7 kts | 217° |
| 2026-05-09 11:02 | 20.89106 | -156.43652 | 69 ft | 8 kts | 212° |
| 2026-05-09 11:02 | 20.89050 | -156.43690 | 69 ft | 10 kts | 217° |
| 2026-05-09 11:03 | 20.88981 | -156.43694 | 71 ft | 9 kts | 144° |
| 2026-05-09 11:03 | 20.88954 | -156.43637 | 73 ft | 8 kts | 95° |
| 2026-05-09 11:03 | 20.88979 | -156.43588 | 74 ft | 0 kts | 36° |
| 2026-05-09 11:03 | 20.88979 | -156.43590 | 74 ft | 0 kts | 36° |
| 2026-05-09 11:04 | 20.88979 | -156.43588 | 74 ft | 0 kts | 36° |
| 2026-05-09 11:04 | 20.89006 | -156.43567 | 74 ft | 15 kts | 36° |
| 2026-05-09 11:04 | 20.89303 | -156.43350 | 69 ft | 86 kts | 34° |
| 2026-05-09 11:04 | 20.89975 | -156.42851 | 38 ft | 146 kts | 34° |
| 2026-05-09 11:05 | 20.90833 | -156.42151 | 484 ft | 155 kts | 40° |
| 2026-05-09 11:05 | 20.91656 | -156.41400 | 1062 ft | 162 kts | 43° |
| 2026-05-09 11:05 | 20.92309 | -156.40410 | 1640 ft | 168 kts | 72° |
| 2026-05-09 11:05 | 20.92462 | -156.39201 | 2311 ft | 169 kts | 88° |
| 2026-05-09 11:06 | 20.92431 | -156.37911 | 2816 ft | 183 kts | 94° |
| 2026-05-09 11:06 | 20.92351 | -156.36493 | 3396 ft | 199 kts | 88° |
| 2026-05-09 11:06 | 20.92544 | -156.35001 | 4003 ft | 213 kts | 77° |
| 2026-05-09 11:06 | 20.92943 | -156.33418 | 4626 ft | 228 kts | 75° |
| 2026-05-09 11:07 | 20.93387 | -156.31751 | 5239 ft | 244 kts | 75° |
| 2026-05-09 11:07 | 20.93857 | -156.29932 | 5851 ft | 261 kts | 75° |
| 2026-05-09 11:07 | 20.94340 | -156.28035 | 6536 ft | 274 kts | 75° |
| 2026-05-09 11:07 | 20.94844 | -156.26051 | 7442 ft | 277 kts | 76° |
| 2026-05-09 11:08 | 20.95347 | -156.24065 | 8259 ft | 283 kts | 76° |
| 2026-05-09 11:08 | 20.95858 | -156.22040 | 9102 ft | 287 kts | 76° |
| 2026-05-09 11:08 | 20.96380 | -156.19978 | 9880 ft | 293 kts | 76° |
| 2026-05-09 11:08 | 20.96925 | -156.17836 | 10544 ft | 303 kts | 76° |
| 2026-05-09 11:09 | 20.97493 | -156.15605 | 11026 ft | 319 kts | 75° |
| 2026-05-09 11:09 | 20.98089 | -156.13272 | 11418 ft | 337 kts | 75° |
| 2026-05-09 11:09 | 20.98717 | -156.10818 | 11830 ft | 353 kts | 75° |
| 2026-05-09 11:09 | 20.99381 | -156.08220 | 12250 ft | 368 kts | 75° |
| 2026-05-09 11:10 | 21.00069 | -156.05534 | 12626 ft | 383 kts | 74° |
| 2026-05-09 11:10 | 21.00775 | -156.02773 | 13169 ft | 391 kts | 74° |
| 2026-05-09 11:10 | 21.01496 | -155.99956 | 13775 ft | 397 kts | 74° |
| 2026-05-09 11:10 | 21.02230 | -155.97081 | 14442 ft | 401 kts | 75° |
| 2026-05-09 11:11 | 21.02962 | -155.94211 | 15112 ft | 405 kts | 75° |
| 2026-05-09 11:11 | 21.03708 | -155.91284 | 15730 ft | 410 kts | 75° |
| 2026-05-09 11:11 | 21.04463 | -155.88313 | 16308 ft | 415 kts | 75° |
| 2026-05-09 11:11 | 21.05215 | -155.85356 | 17002 ft | 417 kts | 75° |
| 2026-05-09 11:12 | 21.05976 | -155.82355 | 17534 ft | 423 kts | 75° |
| 2026-05-09 11:12 | 21.06756 | -155.79280 | 18064 ft | 429 kts | 75° |
| 2026-05-09 11:12 | 21.07536 | -155.76215 | 18611 ft | 433 kts | 75° |
| 2026-05-09 11:12 | 21.08328 | -155.73094 | 19096 ft | 439 kts | 75° |
| 2026-05-09 11:13 | 21.09133 | -155.69922 | 19556 ft | 446 kts | 75° |
| 2026-05-09 11:13 | 21.09953 | -155.66701 | 20094 ft | 450 kts | 75° |
| 2026-05-09 11:13 | 21.10775 | -155.63458 | 20598 ft | 455 kts | 75° |
| 2026-05-09 11:13 | 21.11603 | -155.60191 | 21057 ft | 460 kts | 75° |
| 2026-05-09 11:14 | 21.12451 | -155.56839 | 21444 ft | 467 kts | 75° |
| 2026-05-09 11:14 | 21.13301 | -155.53477 | 21941 ft | 471 kts | 75° |
| 2026-05-09 11:14 | 21.14155 | -155.50092 | 22324 ft | 477 kts | 75° |
| 2026-05-09 11:14 | 21.15026 | -155.46637 | 22824 ft | 481 kts | 75° |
| 2026-05-09 11:15 | 21.15900 | -155.43164 | 23263 ft | 485 kts | 74° |
| 2026-05-09 11:15 | 21.16779 | -155.39667 | 23498 ft | 494 kts | 74° |
| 2026-05-09 11:15 | 21.17683 | -155.36070 | 23907 ft | 499 kts | 75° |
| 2026-05-09 11:15 | 21.18572 | -155.32532 | 24333 ft | 503 kts | 74° |
| 2026-05-09 11:16 | 21.19486 | -155.28894 | 24651 ft | 509 kts | 74° |
| 2026-05-09 11:16 | 21.20413 | -155.25198 | 25073 ft | 512 kts | 74° |
| 2026-05-09 11:16 | 21.21331 | -155.21532 | 25441 ft | 516 kts | 73° |
| 2026-05-09 11:16 | 21.22269 | -155.17781 | 25739 ft | 522 kts | 73° |
| 2026-05-09 11:17 | 21.23207 | -155.14024 | 26141 ft | 525 kts | 73° |
| 2026-05-09 11:17 | 21.24149 | -155.10251 | 26492 ft | 529 kts | 73° |
| 2026-05-09 11:17 | 21.25100 | -155.06445 | 26787 ft | 535 kts | 73° |
| 2026-05-09 11:17 | 21.26071 | -155.02547 | 27123 ft | 539 kts | 73° |
| 2026-05-09 11:18 | 21.27017 | -154.98735 | 27737 ft | 536 kts | 73° |
| 2026-05-09 11:18 | 21.27977 | -154.94856 | 28395 ft | 532 kts | 72° |
| 2026-05-09 11:18 | 21.28918 | -154.91055 | 28720 ft | 536 kts | 73° |
| 2026-05-09 11:18 | 21.29884 | -154.87155 | 28959 ft | 541 kts | 73° |
| 2026-05-09 11:19 | 21.30836 | -154.83310 | 29428 ft | 541 kts | 73° |
| 2026-05-09 11:19 | 21.31798 | -154.79423 | 29938 ft | 540 kts | 73° |
| 2026-05-09 11:19 | 21.32760 | -154.75536 | 30457 ft | 538 kts | 74° |
| 2026-05-09 11:19 | 21.33709 | -154.71692 | 30963 ft | 536 kts | 73° |
| 2026-05-09 11:20 | 21.34665 | -154.67821 | 31427 ft | 535 kts | 74° |
| 2026-05-09 11:20 | 21.35615 | -154.63972 | 31864 ft | 535 kts | 74° |
| 2026-05-09 11:20 | 21.36555 | -154.60153 | 32339 ft | 533 kts | 75° |
| 2026-05-09 11:20 | 21.37508 | -154.56265 | 32624 ft | 536 kts | 75° |
| 2026-05-09 11:21 | 21.38450 | -154.52426 | 32859 ft | 540 kts | 75° |
| 2026-05-09 11:21 | 21.39409 | -154.48528 | 33141 ft | 544 kts | 76° |
| 2026-05-09 11:21 | 21.40366 | -154.44618 | 33632 ft | 542 kts | 75° |
| 2026-05-09 11:21 | 21.41322 | -154.40709 | 34385 ft | 536 kts | 74° |
| 2026-05-09 11:22 | 21.42252 | -154.36897 | 35133 ft | 529 kts | 74° |
| 2026-05-09 11:22 | 21.43179 | -154.33083 | 35712 ft | 525 kts | 75° |
| 2026-05-09 11:22 | 21.44107 | -154.29271 | 35896 ft | 529 kts | 75° |
| 2026-05-09 11:22 | 21.45052 | -154.25394 | 36072 ft | 532 kts | 75° |
| 2026-05-09 11:23 | 21.45994 | -154.21529 | 36345 ft | 534 kts | 75° |
| 2026-05-09 11:23 | 21.46932 | -154.17683 | 36693 ft | 533 kts | 75° |
| 2026-05-09 11:23 | 21.47870 | -154.13826 | 37033 ft | 533 kts | 74° |
| 2026-05-09 11:24 | 21.49746 | -154.06073 | 37074 ft | 527 kts | 75° |
| 2026-05-09 11:24 | 21.51599 | -153.98456 | 37077 ft | 527 kts | 75° |
| 2026-05-09 11:25 | 21.53454 | -153.90814 | 37077 ft | 528 kts | 75° |
| 2026-05-09 11:25 | 21.55302 | -153.83107 | 37071 ft | 529 kts | 74° |
| 2026-05-09 11:26 | 21.57130 | -153.75481 | 37073 ft | 527 kts | 74° |
| 2026-05-09 11:26 | 21.58957 | -153.67880 | 37080 ft | 529 kts | 75° |
| 2026-05-09 11:27 | 21.60804 | -153.60162 | 37072 ft | 528 kts | 75° |
| 2026-05-09 11:27 | 21.62616 | -153.52571 | 37077 ft | 528 kts | 75° |
| 2026-05-09 11:28 | 21.64437 | -153.44925 | 37076 ft | 530 kts | 74° |
| 2026-05-09 11:28 | 21.66253 | -153.37280 | 37074 ft | 529 kts | 74° |
| 2026-05-09 11:29 | 21.68078 | -153.29613 | 37080 ft | 530 kts | 74° |
| 2026-05-09 11:29 | 21.69843 | -153.21935 | 37082 ft | 529 kts | 76° |
| 2026-05-09 11:30 | 21.71730 | -153.14311 | 37081 ft | 526 kts | 68° |
| 2026-05-09 11:30 | 21.74724 | -153.07150 | 37083 ft | 524 kts | 59° |
| 2026-05-09 11:31 | 21.78257 | -153.00331 | 37085 ft | 522 kts | 57° |
| 2026-05-09 11:31 | 21.81885 | -152.93533 | 37084 ft | 522 kts | 57° |
| 2026-05-09 11:32 | 21.85436 | -152.86728 | 37087 ft | 524 kts | 57° |
| 2026-05-09 11:32 | 21.88950 | -152.79834 | 37088 ft | 525 kts | 57° |
| 2026-05-09 11:33 | 21.92420 | -152.72957 | 37088 ft | 524 kts | 57° |
| 2026-05-09 11:33 | 21.97591 | -152.62634 | 37091 ft | 524 kts | 58° |
| 2026-05-09 11:34 | 22.01069 | -152.55670 | 37093 ft | 528 kts | 58° |
| 2026-05-09 11:34 | 22.04526 | -152.48735 | 37090 ft | 525 kts | 57° |
| 2026-05-09 11:35 | 22.07997 | -152.41775 | 37091 ft | 528 kts | 57° |
| 2026-05-09 11:35 | 22.11449 | -152.34856 | 37091 ft | 527 kts | 57° |
| 2026-05-09 11:36 | 22.14901 | -152.27919 | 37092 ft | 527 kts | 58° |
| 2026-05-09 11:36 | 22.18387 | -152.20903 | 37091 ft | 529 kts | 58° |
| 2026-05-09 11:37 | 22.21848 | -152.13934 | 37092 ft | 528 kts | 57° |
| 2026-05-09 11:37 | 22.25299 | -152.06979 | 37090 ft | 526 kts | 57° |
| 2026-05-09 11:38 | 22.28752 | -152.00017 | 37086 ft | 530 kts | 57° |
| 2026-05-09 11:38 | 22.32223 | -151.93005 | 37087 ft | 528 kts | 58° |
| 2026-05-09 11:39 | 22.35668 | -151.86015 | 37089 ft | 529 kts | 57° |
| 2026-05-09 11:40 | 22.40827 | -151.75482 | 37090 ft | 528 kts | 57° |
| 2026-05-09 11:40 | 22.44247 | -151.68480 | 37089 ft | 529 kts | 58° |
| 2026-05-09 11:41 | 22.47667 | -151.61472 | 37089 ft | 527 kts | 58° |
| 2026-05-09 11:41 | 22.51079 | -151.54475 | 37088 ft | 528 kts | 57° |
| 2026-05-09 11:42 | 22.54516 | -151.47429 | 37091 ft | 529 kts | 57° |
| 2026-05-09 11:42 | 22.57933 | -151.40410 | 37090 ft | 529 kts | 57° |
| 2026-05-09 11:43 | 22.61351 | -151.33377 | 37080 ft | 528 kts | 58° |
| 2026-05-09 11:43 | 22.64786 | -151.26296 | 37087 ft | 532 kts | 58° |
| 2026-05-09 11:44 | 22.68201 | -151.19238 | 37087 ft | 530 kts | 58° |
| 2026-05-09 11:44 | 22.71617 | -151.12177 | 37084 ft | 533 kts | 58° |
| 2026-05-09 11:45 | 22.75055 | -151.05034 | 37084 ft | 531 kts | 57° |
| 2026-05-09 11:45 | 22.78470 | -150.97954 | 37087 ft | 531 kts | 58° |
| 2026-05-09 11:46 | 22.81881 | -150.90880 | 37084 ft | 531 kts | 57° |
| 2026-05-09 11:46 | 22.85311 | -150.83763 | 37089 ft | 532 kts | 57° |
| 2026-05-09 11:47 | 22.88712 | -150.76682 | 37091 ft | 532 kts | 58° |
| 2026-05-09 11:47 | 22.92125 | -150.69571 | 37090 ft | 533 kts | 58° |
| 2026-05-09 11:48 | 22.95546 | -150.62418 | 37087 ft | 530 kts | 57° |
| 2026-05-09 11:48 | 22.98922 | -150.55353 | 37090 ft | 532 kts | 57° |
| 2026-05-09 11:49 | 23.02325 | -150.48228 | 37088 ft | 530 kts | 57° |
| 2026-05-09 11:49 | 23.05737 | -150.41080 | 37089 ft | 534 kts | 58° |
| 2026-05-09 11:50 | 23.09144 | -150.33933 | 37089 ft | 531 kts | 58° |
| 2026-05-09 11:50 | 23.12533 | -150.26817 | 37097 ft | 532 kts | 59° |
| 2026-05-09 11:51 | 23.15916 | -150.19690 | 37095 ft | 533 kts | 58° |
| 2026-05-09 11:51 | 23.19302 | -150.12544 | 37095 ft | 528 kts | 58° |
| 2026-05-09 11:52 | 23.22648 | -150.05469 | 37097 ft | 529 kts | 58° |
| 2026-05-09 11:52 | 23.26011 | -149.98352 | 37091 ft | 530 kts | 58° |
| 2026-05-09 11:53 | 23.29379 | -149.91217 | 37081 ft | 529 kts | 58° |
| 2026-05-09 11:53 | 23.32732 | -149.84113 | 37079 ft | 529 kts | 58° |
| 2026-05-09 11:54 | 23.36081 | -149.77004 | 37088 ft | 529 kts | 58° |
| 2026-05-09 11:54 | 23.39435 | -149.69876 | 37088 ft | 530 kts | 58° |
| 2026-05-09 11:55 | 23.42781 | -149.62741 | 37082 ft | 531 kts | 58° |
| 2026-05-09 11:56 | 23.52793 | -149.41328 | 37082 ft | 529 kts | 58° |
| 2026-05-09 11:57 | 23.56124 | -149.34192 | 37079 ft | 528 kts | 59° |
| 2026-05-09 11:57 | 23.59441 | -149.27077 | 37082 ft | 528 kts | 58° |
| 2026-05-09 11:58 | 23.62747 | -149.19971 | 37084 ft | 526 kts | 58° |
| 2026-05-09 11:58 | 23.66058 | -149.12839 | 37082 ft | 526 kts | 58° |
| 2026-05-09 11:59 | 23.69351 | -149.05739 | 37085 ft | 527 kts | 58° |
| 2026-05-09 11:59 | 23.72649 | -148.98613 | 37087 ft | 524 kts | 58° |
| 2026-05-09 12:00 | 23.75947 | -148.91489 | 37084 ft | 525 kts | 58° |
| 2026-05-09 12:00 | 23.79222 | -148.84395 | 37086 ft | 525 kts | 58° |
| 2026-05-09 12:01 | 23.82498 | -148.77295 | 37087 ft | 523 kts | 58° |
| 2026-05-09 12:01 | 23.85759 | -148.70213 | 37089 ft | 527 kts | 58° |
| 2026-05-09 12:02 | 23.89031 | -148.63083 | 37089 ft | 524 kts | 58° |
| 2026-05-09 12:02 | 23.92319 | -148.55914 | 37095 ft | 526 kts | 58° |
| 2026-05-09 12:03 | 23.95582 | -148.48801 | 37105 ft | 525 kts | 58° |
| 2026-05-09 12:03 | 23.98859 | -148.41640 | 37110 ft | 525 kts | 58° |
| 2026-05-09 12:04 | 24.02109 | -148.34528 | 37110 ft | 524 kts | 58° |
| 2026-05-09 12:04 | 24.05368 | -148.27391 | 37110 ft | 523 kts | 58° |
| 2026-05-09 12:05 | 24.08624 | -148.20252 | 37113 ft | 525 kts | 58° |
| 2026-05-09 12:05 | 24.11855 | -148.13144 | 37110 ft | 523 kts | 59° |
| 2026-05-09 12:06 | 24.15086 | -148.06026 | 37112 ft | 522 kts | 58° |
| 2026-05-09 12:06 | 24.18318 | -147.98895 | 37110 ft | 522 kts | 58° |
| 2026-05-09 12:07 | 24.21535 | -147.91789 | 37107 ft | 521 kts | 59° |
| 2026-05-09 12:07 | 24.24748 | -147.84677 | 37110 ft | 520 kts | 59° |
| 2026-05-09 12:08 | 24.27951 | -147.77574 | 37110 ft | 518 kts | 58° |
| 2026-05-09 12:08 | 24.31112 | -147.70560 | 37109 ft | 519 kts | 58° |
| 2026-05-09 12:09 | 24.34315 | -147.63443 | 37106 ft | 518 kts | 58° |
| 2026-05-09 12:09 | 24.37498 | -147.56369 | 37109 ft | 517 kts | 59° |
| 2026-05-09 12:10 | 24.43832 | -147.42250 | 37110 ft | 515 kts | 59° |
| 2026-05-09 12:11 | 24.46996 | -147.35172 | 37112 ft | 514 kts | 59° |
| 2026-05-09 12:11 | 24.50127 | -147.28149 | 37115 ft | 516 kts | 59° |
| 2026-05-09 12:12 | 24.53268 | -147.21097 | 37112 ft | 514 kts | 59° |
| 2026-05-09 12:12 | 24.56396 | -147.14072 | 37111 ft | 512 kts | 59° |
| 2026-05-09 12:13 | 24.59527 | -147.07034 | 37107 ft | 514 kts | 59° |
| 2026-05-09 12:13 | 24.62648 | -147.00006 | 37109 ft | 513 kts | 59° |
| 2026-05-09 12:14 | 24.65750 | -146.93015 | 37117 ft | 510 kts | 59° |
| 2026-05-09 12:14 | 24.68859 | -146.85986 | 37124 ft | 510 kts | 59° |
| 2026-05-09 12:15 | 24.71962 | -146.78958 | 37119 ft | 510 kts | 59° |
| 2026-05-09 12:15 | 24.75036 | -146.71985 | 37117 ft | 508 kts | 60° |
| 2026-05-09 12:16 | 24.78104 | -146.65015 | 37113 ft | 507 kts | 59° |
| 2026-05-09 12:16 | 24.81181 | -146.58020 | 37112 ft | 509 kts | 59° |
| 2026-05-09 12:17 | 24.84252 | -146.51025 | 37111 ft | 507 kts | 59° |
| 2026-05-09 12:17 | 24.87308 | -146.44051 | 37113 ft | 505 kts | 59° |
| 2026-05-09 12:18 | 24.90372 | -146.37053 | 37112 ft | 506 kts | 59° |
| 2026-05-09 12:18 | 24.93410 | -146.30106 | 37114 ft | 506 kts | 60° |
| 2026-05-09 12:19 | 24.96462 | -146.23112 | 37117 ft | 504 kts | 60° |
| 2026-05-09 12:19 | 24.99502 | -146.16136 | 37112 ft | 504 kts | 60° |
| 2026-05-09 12:20 | 25.02521 | -146.09184 | 37117 ft | 504 kts | 60° |
| 2026-05-09 12:20 | 25.05553 | -146.02199 | 37116 ft | 502 kts | 60° |
| 2026-05-09 12:21 | 25.08552 | -145.95285 | 37115 ft | 500 kts | 60° |
| 2026-05-09 12:21 | 25.11569 | -145.88321 | 37116 ft | 502 kts | 60° |
| 2026-05-09 12:22 | 25.14535 | -145.81461 | 37117 ft | 498 kts | 60° |
| 2026-05-09 12:22 | 25.17528 | -145.74521 | 37121 ft | 498 kts | 60° |
| 2026-05-09 12:23 | 25.20492 | -145.67645 | 37120 ft | 499 kts | 60° |
| 2026-05-09 12:23 | 25.23457 | -145.60751 | 37124 ft | 497 kts | 60° |
| 2026-05-09 12:24 | 25.26420 | -145.53856 | 37125 ft | 497 kts | 60° |
| 2026-05-09 12:24 | 25.29386 | -145.46945 | 37129 ft | 497 kts | 60° |
| 2026-05-09 12:25 | 25.32343 | -145.40033 | 37127 ft | 496 kts | 60° |
| 2026-05-09 12:25 | 25.35273 | -145.33173 | 37133 ft | 495 kts | 61° |
| 2026-05-09 12:26 | 25.38197 | -145.26309 | 37137 ft | 495 kts | 61° |
| 2026-05-09 12:26 | 25.41136 | -145.19406 | 37126 ft | 493 kts | 62° |
| 2026-05-09 12:27 | 25.44038 | -145.12576 | 37137 ft | 493 kts | 62° |
| 2026-05-09 12:27 | 25.46962 | -145.05692 | 37138 ft | 493 kts | 62° |
| 2026-05-09 12:28 | 25.49870 | -144.98822 | 37135 ft | 492 kts | 62° |
| 2026-05-09 12:28 | 25.52760 | -144.91989 | 37131 ft | 490 kts | 62° |
| 2026-05-09 12:29 | 25.55643 | -144.85169 | 37135 ft | 492 kts | 62° |
| 2026-05-09 12:29 | 25.58534 | -144.78314 | 37133 ft | 490 kts | 62° |
| 2026-05-09 12:30 | 25.61428 | -144.71437 | 37138 ft | 491 kts | 62° |
| 2026-05-09 12:30 | 25.65734 | -144.61188 | 37132 ft | 489 kts | 62° |
| 2026-05-09 12:31 | 25.70034 | -144.50929 | 37131 ft | 489 kts | 62° |
| 2026-05-09 12:32 | 25.72876 | -144.44130 | 37129 ft | 487 kts | 63° |
| 2026-05-09 12:32 | 25.75720 | -144.37320 | 37129 ft | 488 kts | 62° |
| 2026-05-09 12:33 | 25.78583 | -144.30456 | 37138 ft | 489 kts | 63° |
| 2026-05-09 12:33 | 25.81412 | -144.23663 | 37129 ft | 487 kts | 63° |
| 2026-05-09 12:34 | 25.84280 | -144.16763 | 37132 ft | 488 kts | 63° |
| 2026-05-09 12:34 | 25.87092 | -144.09993 | 37131 ft | 486 kts | 63° |
| 2026-05-09 12:35 | 25.89925 | -144.03160 | 37132 ft | 487 kts | 63° |
| 2026-05-09 12:35 | 25.92749 | -143.96335 | 37133 ft | 487 kts | 63° |
| 2026-05-09 12:36 | 25.95564 | -143.89514 | 37134 ft | 486 kts | 63° |
| 2026-05-09 12:36 | 25.98386 | -143.82667 | 37136 ft | 485 kts | 63° |
| 2026-05-09 12:37 | 26.01177 | -143.75893 | 37133 ft | 485 kts | 63° |
| 2026-05-09 12:37 | 26.03992 | -143.69045 | 37135 ft | 484 kts | 63° |
| 2026-05-09 12:38 | 26.06780 | -143.62250 | 37135 ft | 486 kts | 63° |
| 2026-05-09 12:38 | 26.09573 | -143.55437 | 37130 ft | 484 kts | 63° |
| 2026-05-09 12:39 | 26.12369 | -143.48602 | 37136 ft | 485 kts | 63° |
| 2026-05-09 12:39 | 26.15151 | -143.41785 | 37139 ft | 483 kts | 63° |
| 2026-05-09 12:40 | 26.17934 | -143.34950 | 37138 ft | 484 kts | 63° |
| 2026-05-09 12:40 | 26.20694 | -143.28169 | 37134 ft | 483 kts | 63° |
| 2026-05-09 12:41 | 26.23473 | -143.21338 | 37139 ft | 484 kts | 63° |
| 2026-05-09 12:41 | 26.26238 | -143.14528 | 37140 ft | 483 kts | 63° |
| 2026-05-09 12:42 | 26.28987 | -143.07739 | 37142 ft | 481 kts | 63° |
| 2026-05-09 12:42 | 26.31738 | -143.00931 | 37140 ft | 481 kts | 63° |
| 2026-05-09 12:43 | 26.34481 | -142.94138 | 37141 ft | 480 kts | 63° |
| 2026-05-09 12:43 | 26.37202 | -142.87387 | 37140 ft | 479 kts | 63° |
| 2026-05-09 12:44 | 26.39917 | -142.80637 | 37144 ft | 479 kts | 63° |
| 2026-05-09 12:44 | 26.42630 | -142.73885 | 37139 ft | 478 kts | 63° |
| 2026-05-09 12:45 | 26.45350 | -142.67104 | 37143 ft | 478 kts | 63° |
| 2026-05-09 12:45 | 26.48059 | -142.60335 | 37146 ft | 477 kts | 64° |
| 2026-05-09 12:46 | 26.50760 | -142.53577 | 37147 ft | 477 kts | 63° |
| 2026-05-09 12:46 | 26.53460 | -142.46811 | 37146 ft | 477 kts | 63° |
| 2026-05-09 12:47 | 26.56138 | -142.40097 | 37151 ft | 476 kts | 64° |
| 2026-05-09 12:47 | 26.58824 | -142.33351 | 37152 ft | 475 kts | 64° |
| 2026-05-09 12:48 | 26.61522 | -142.26562 | 37151 ft | 476 kts | 64° |
| 2026-05-09 12:48 | 26.64188 | -142.19842 | 37158 ft | 474 kts | 64° |
| 2026-05-09 12:49 | 26.66859 | -142.13092 | 37158 ft | 475 kts | 64° |
| 2026-05-09 12:49 | 26.69520 | -142.06352 | 37160 ft | 473 kts | 64° |
| 2026-05-09 12:49 | 26.70840 | -142.03008 | 37273 ft | 473 kts | 64° |
| 2026-05-09 12:50 | 26.72156 | -141.99674 | 37417 ft | 475 kts | 64° |
| 2026-05-09 12:50 | 26.73492 | -141.96283 | 37568 ft | 476 kts | 64° |
| 2026-05-09 12:50 | 26.74825 | -141.92896 | 37708 ft | 475 kts | 64° |
| 2026-05-09 12:50 | 26.76154 | -141.89519 | 37848 ft | 475 kts | 64° |
| 2026-05-09 12:51 | 26.77469 | -141.86169 | 37995 ft | 475 kts | 64° |
| 2026-05-09 12:51 | 26.78803 | -141.82774 | 38143 ft | 474 kts | 64° |
| 2026-05-09 12:51 | 26.80120 | -141.79417 | 38284 ft | 474 kts | 64° |
| 2026-05-09 12:51 | 26.81443 | -141.76042 | 38435 ft | 474 kts | 64° |
| 2026-05-09 12:52 | 26.82775 | -141.72644 | 38587 ft | 473 kts | 64° |
| 2026-05-09 12:52 | 26.84096 | -141.69267 | 38739 ft | 472 kts | 64° |
| 2026-05-09 12:52 | 26.85406 | -141.65912 | 38887 ft | 473 kts | 64° |
| 2026-05-09 12:52 | 26.86726 | -141.62534 | 39043 ft | 472 kts | 64° |
| 2026-05-09 12:53 | 26.88052 | -141.59139 | 39157 ft | 473 kts | 64° |
| 2026-05-09 12:53 | 26.90677 | -141.52409 | 39173 ft | 471 kts | 64° |
| 2026-05-09 12:54 | 26.93295 | -141.45683 | 39171 ft | 470 kts | 64° |
| 2026-05-09 12:54 | 26.95840 | -141.39134 | 39173 ft | 471 kts | 64° |
| 2026-05-09 12:55 | 26.98454 | -141.32400 | 39173 ft | 470 kts | 64° |
| 2026-05-09 12:55 | 27.01060 | -141.25673 | 39174 ft | 470 kts | 64° |
| 2026-05-09 12:56 | 27.03655 | -141.18959 | 39174 ft | 469 kts | 64° |
| 2026-05-09 12:56 | 27.06243 | -141.12253 | 39175 ft | 468 kts | 64° |
| 2026-05-09 12:57 | 27.08837 | -141.05527 | 39173 ft | 470 kts | 65° |
| 2026-05-09 12:57 | 27.11418 | -140.98828 | 39178 ft | 467 kts | 65° |
| 2026-05-09 12:58 | 27.13974 | -140.92172 | 39181 ft | 466 kts | 65° |
| 2026-05-09 12:58 | 27.16543 | -140.85469 | 39174 ft | 467 kts | 65° |
| 2026-05-09 12:59 | 27.19106 | -140.78770 | 39174 ft | 467 kts | 65° |
| 2026-05-09 12:59 | 27.21666 | -140.72072 | 39181 ft | 467 kts | 65° |
| 2026-05-09 13:00 | 27.24222 | -140.65378 | 39181 ft | 466 kts | 65° |
| 2026-05-09 13:00 | 27.26763 | -140.58713 | 39171 ft | 465 kts | 65° |
| 2026-05-09 13:01 | 27.29303 | -140.52035 | 39178 ft | 467 kts | 65° |
| 2026-05-09 13:01 | 27.31850 | -140.45325 | 39182 ft | 465 kts | 65° |
| 2026-05-09 13:02 | 27.34378 | -140.38650 | 39178 ft | 464 kts | 65° |
| 2026-05-09 13:02 | 27.36886 | -140.32011 | 39178 ft | 464 kts | 65° |
| 2026-05-09 13:03 | 27.39408 | -140.25328 | 39172 ft | 464 kts | 66° |
| 2026-05-09 13:03 | 27.41921 | -140.18665 | 39174 ft | 464 kts | 66° |
| 2026-05-09 13:04 | 27.44437 | -140.11989 | 39181 ft | 464 kts | 66° |
| 2026-05-09 13:04 | 27.46950 | -140.05302 | 39183 ft | 462 kts | 66° |
| 2026-05-09 13:05 | 27.49432 | -139.98686 | 39177 ft | 462 kts | 66° |
| 2026-05-09 13:05 | 27.51927 | -139.92026 | 39174 ft | 461 kts | 66° |
| 2026-05-09 13:06 | 27.54413 | -139.85378 | 39178 ft | 462 kts | 66° |
| 2026-05-09 13:06 | 27.56896 | -139.78728 | 39177 ft | 461 kts | 66° |
| 2026-05-09 13:07 | 27.59386 | -139.72040 | 39178 ft | 462 kts | 66° |
| 2026-05-09 13:07 | 27.61884 | -139.65328 | 39176 ft | 470 kts | 66° |
| 2026-05-09 13:08 | 27.64417 | -139.58505 | 39173 ft | 473 kts | 66° |
| 2026-05-09 13:08 | 27.66934 | -139.51708 | 39174 ft | 470 kts | 66° |
| 2026-05-09 13:09 | 27.69455 | -139.44891 | 39175 ft | 471 kts | 66° |
| 2026-05-09 13:09 | 27.71975 | -139.38068 | 39179 ft | 469 kts | 66° |
| 2026-05-09 13:10 | 27.74455 | -139.31339 | 39185 ft | 469 kts | 67° |
| 2026-05-09 13:10 | 27.76964 | -139.24509 | 39185 ft | 470 kts | 67° |
| 2026-05-09 13:11 | 27.79470 | -139.17683 | 39188 ft | 469 kts | 67° |
| 2026-05-09 13:11 | 27.81950 | -139.10922 | 39186 ft | 469 kts | 67° |
| 2026-05-09 13:12 | 27.84438 | -139.04123 | 39191 ft | 468 kts | 67° |
| 2026-05-09 13:12 | 27.86925 | -138.97314 | 39190 ft | 467 kts | 67° |
| 2026-05-09 13:13 | 27.89393 | -138.90553 | 39191 ft | 468 kts | 67° |
| 2026-05-09 13:13 | 27.91867 | -138.83758 | 39195 ft | 466 kts | 67° |
| 2026-05-09 13:14 | 27.94313 | -138.77025 | 39193 ft | 465 kts | 67° |
| 2026-05-09 13:16 | 28.04113 | -138.49889 | 39196 ft | 466 kts | 68° |
| 2026-05-09 13:16 | 28.06544 | -138.43127 | 39197 ft | 465 kts | 68° |
| 2026-05-09 13:17 | 28.08989 | -138.36316 | 39196 ft | 465 kts | 68° |
| 2026-05-09 13:17 | 28.11408 | -138.29561 | 39197 ft | 465 kts | 68° |
| 2026-05-09 13:18 | 28.13829 | -138.22790 | 39196 ft | 464 kts | 68° |
| 2026-05-09 13:18 | 28.16252 | -138.16003 | 39198 ft | 465 kts | 68° |
| 2026-05-09 13:19 | 28.18662 | -138.09241 | 39199 ft | 466 kts | 68° |
| 2026-05-09 13:19 | 28.21073 | -138.02460 | 39197 ft | 465 kts | 68° |
| 2026-05-09 13:20 | 28.23488 | -137.95657 | 39199 ft | 465 kts | 68° |
| 2026-05-09 13:20 | 28.25893 | -137.88870 | 39196 ft | 464 kts | 68° |
| 2026-05-09 13:21 | 28.28281 | -137.82115 | 39202 ft | 463 kts | 68° |
| 2026-05-09 13:21 | 28.30667 | -137.75351 | 39196 ft | 463 kts | 68° |
| 2026-05-09 13:22 | 28.33054 | -137.68579 | 39196 ft | 463 kts | 68° |
| 2026-05-09 13:22 | 28.35442 | -137.61792 | 39195 ft | 463 kts | 68° |
| 2026-05-09 13:23 | 28.41349 | -137.44942 | 39196 ft | 462 kts | 68° |
| 2026-05-09 13:24 | 28.43732 | -137.38123 | 39194 ft | 462 kts | 68° |
| 2026-05-09 13:24 | 28.46098 | -137.31328 | 39192 ft | 462 kts | 69° |
| 2026-05-09 13:25 | 28.48086 | -137.24428 | 39194 ft | 461 kts | 75° |
| 2026-05-09 13:26 | 28.50569 | -137.13910 | 39192 ft | 461 kts | 76° |
| 2026-05-09 13:26 | 28.52231 | -137.06894 | 39193 ft | 460 kts | 75° |
| 2026-05-09 13:27 | 28.53929 | -136.99880 | 39193 ft | 460 kts | 75° |
| 2026-05-09 13:27 | 28.55641 | -136.92912 | 39195 ft | 461 kts | 75° |
| 2026-05-09 13:28 | 28.57378 | -136.85883 | 39195 ft | 461 kts | 75° |
| 2026-05-09 13:28 | 28.59111 | -136.78868 | 39196 ft | 460 kts | 75° |
| 2026-05-09 13:29 | 28.60834 | -136.71890 | 39197 ft | 460 kts | 75° |
| 2026-05-09 13:29 | 28.62560 | -136.64883 | 39197 ft | 460 kts | 75° |
| 2026-05-09 13:30 | 28.64273 | -136.57909 | 39200 ft | 458 kts | 75° |
| 2026-05-09 13:30 | 28.65973 | -136.50977 | 39203 ft | 458 kts | 75° |
| 2026-05-09 13:31 | 28.67686 | -136.43971 | 39207 ft | 458 kts | 75° |
| 2026-05-09 13:31 | 28.69381 | -136.37027 | 39207 ft | 458 kts | 74° |
| 2026-05-09 13:32 | 28.71080 | -136.30049 | 39210 ft | 457 kts | 75° |
| 2026-05-09 13:32 | 28.73615 | -136.19606 | 39212 ft | 457 kts | 75° |
| 2026-05-09 13:33 | 28.75299 | -136.12648 | 39214 ft | 457 kts | 75° |
| 2026-05-09 13:33 | 28.76981 | -136.05682 | 39215 ft | 456 kts | 75° |
| 2026-05-09 13:34 | 28.78650 | -135.98744 | 39214 ft | 455 kts | 75° |
| 2026-05-09 13:34 | 28.80316 | -135.91797 | 39215 ft | 455 kts | 75° |
| 2026-05-09 13:35 | 28.81987 | -135.84821 | 39215 ft | 456 kts | 75° |
| 2026-05-09 13:35 | 28.83648 | -135.77876 | 39215 ft | 455 kts | 75° |
| 2026-05-09 13:36 | 28.85310 | -135.70906 | 39215 ft | 456 kts | 75° |
| 2026-05-09 13:36 | 28.86975 | -135.63907 | 39215 ft | 457 kts | 75° |
| 2026-05-09 13:37 | 28.88633 | -135.56917 | 39215 ft | 457 kts | 75° |
| 2026-05-09 13:37 | 28.90285 | -135.49933 | 39215 ft | 455 kts | 75° |
| 2026-05-09 13:38 | 28.91919 | -135.43005 | 39215 ft | 456 kts | 75° |
| 2026-05-09 13:38 | 28.93556 | -135.36055 | 39215 ft | 455 kts | 75° |
| 2026-05-09 13:39 | 28.95192 | -135.29088 | 39215 ft | 456 kts | 76° |
| 2026-05-09 13:39 | 28.96823 | -135.22119 | 39215 ft | 456 kts | 76° |
| 2026-05-09 13:40 | 28.98466 | -135.15091 | 39215 ft | 456 kts | 76° |
| 2026-05-09 13:40 | 29.00096 | -135.08092 | 39215 ft | 457 kts | 76° |
| 2026-05-09 13:41 | 29.01730 | -135.01064 | 39215 ft | 457 kts | 76° |
| 2026-05-09 13:41 | 29.03340 | -134.94119 | 39211 ft | 455 kts | 76° |
| 2026-05-09 13:42 | 29.04960 | -134.87115 | 39211 ft | 455 kts | 76° |
| 2026-05-09 13:42 | 29.06567 | -134.80141 | 39216 ft | 455 kts | 76° |
| 2026-05-09 13:43 | 29.08171 | -134.73172 | 39212 ft | 455 kts | 76° |
| 2026-05-09 13:43 | 29.09780 | -134.66164 | 39207 ft | 455 kts | 76° |
| 2026-05-09 13:44 | 29.11380 | -134.59178 | 39213 ft | 456 kts | 76° |
| 2026-05-09 13:44 | 29.12983 | -134.52156 | 39216 ft | 456 kts | 76° |
| 2026-05-09 13:45 | 29.14586 | -134.45117 | 39200 ft | 456 kts | 76° |
| 2026-05-09 13:45 | 29.16182 | -134.38098 | 39215 ft | 454 kts | 76° |
| 2026-05-09 13:46 | 29.17756 | -134.31146 | 39212 ft | 454 kts | 76° |
| 2026-05-09 13:46 | 29.19336 | -134.24150 | 39212 ft | 455 kts | 77° |
| 2026-05-09 13:47 | 29.20917 | -134.17137 | 39213 ft | 456 kts | 77° |
| 2026-05-09 13:47 | 29.22491 | -134.10135 | 39212 ft | 455 kts | 77° |
| 2026-05-09 13:48 | 29.24062 | -134.03133 | 39214 ft | 455 kts | 77° |
| 2026-05-09 13:48 | 29.25633 | -133.96118 | 39210 ft | 453 kts | 77° |
| 2026-05-09 13:49 | 29.27187 | -133.89146 | 39216 ft | 453 kts | 77° |
| 2026-05-09 13:49 | 29.28744 | -133.82140 | 39223 ft | 454 kts | 77° |
| 2026-05-09 13:50 | 29.30294 | -133.75143 | 39222 ft | 454 kts | 77° |
| 2026-05-09 13:50 | 29.31840 | -133.68149 | 39219 ft | 455 kts | 77° |
| 2026-05-09 13:51 | 29.33391 | -133.61127 | 39225 ft | 454 kts | 77° |
| 2026-05-09 13:51 | 29.34943 | -133.54085 | 39226 ft | 455 kts | 77° |
| 2026-05-09 13:52 | 29.36478 | -133.47090 | 39219 ft | 454 kts | 77° |
| 2026-05-09 13:52 | 29.38006 | -133.40115 | 39228 ft | 453 kts | 77° |
| 2026-05-09 13:53 | 29.39533 | -133.33119 | 39223 ft | 454 kts | 78° |
| 2026-05-09 13:53 | 29.41064 | -133.26082 | 39221 ft | 453 kts | 78° |
| 2026-05-09 13:54 | 29.42586 | -133.19081 | 39220 ft | 453 kts | 78° |
| 2026-05-09 13:54 | 29.44091 | -133.12131 | 39223 ft | 453 kts | 78° |
| 2026-05-09 13:55 | 29.45604 | -133.05129 | 39229 ft | 453 kts | 78° |
| 2026-05-09 13:55 | 29.47118 | -132.98091 | 39226 ft | 453 kts | 78° |
| 2026-05-09 13:56 | 29.48619 | -132.91101 | 39228 ft | 453 kts | 78° |
| 2026-05-09 13:56 | 29.50121 | -132.84087 | 39226 ft | 454 kts | 78° |
| 2026-05-09 13:57 | 29.51610 | -132.77109 | 39236 ft | 453 kts | 78° |
| 2026-05-09 13:57 | 29.53115 | -132.70059 | 39239 ft | 453 kts | 78° |
| 2026-05-09 13:58 | 29.54599 | -132.63080 | 39230 ft | 453 kts | 78° |
| 2026-05-09 13:58 | 29.56086 | -132.56067 | 39229 ft | 453 kts | 78° |
| 2026-05-09 13:59 | 29.57568 | -132.49046 | 39229 ft | 453 kts | 78° |
| 2026-05-09 13:59 | 29.59053 | -132.42004 | 39225 ft | 453 kts | 79° |
| 2026-05-09 14:00 | 29.60037 | -132.37328 | 39226 ft | 454 kts | 78° |
| 2026-05-09 14:00 | 29.61997 | -132.27969 | 39227 ft | 453 kts | 79° |
| 2026-05-09 14:01 | 29.63469 | -132.20923 | 39227 ft | 453 kts | 79° |
| 2026-05-09 14:01 | 29.64927 | -132.13928 | 39227 ft | 453 kts | 79° |
| 2026-05-09 14:02 | 29.66389 | -132.06903 | 39224 ft | 454 kts | 79° |
| 2026-05-09 14:02 | 29.67852 | -131.99837 | 39219 ft | 454 kts | 79° |
| 2026-05-09 14:03 | 29.69306 | -131.92807 | 39215 ft | 454 kts | 79° |
| 2026-05-09 14:03 | 29.70765 | -131.85728 | 39214 ft | 454 kts | 79° |
| 2026-05-09 14:04 | 29.72219 | -131.78661 | 39214 ft | 454 kts | 79° |
| 2026-05-09 14:04 | 29.73657 | -131.71631 | 39213 ft | 454 kts | 79° |
| 2026-05-09 14:05 | 29.75106 | -131.64539 | 39214 ft | 454 kts | 79° |
| 2026-05-09 14:05 | 29.76541 | -131.57487 | 39214 ft | 455 kts | 79° |
| 2026-05-09 14:06 | 29.77976 | -131.50420 | 39216 ft | 454 kts | 79° |
| 2026-05-09 14:06 | 29.79412 | -131.43337 | 39215 ft | 454 kts | 79° |
| 2026-05-09 14:07 | 29.80839 | -131.36273 | 39216 ft | 454 kts | 79° |
| 2026-05-09 14:07 | 29.82259 | -131.29216 | 39214 ft | 453 kts | 79° |
| 2026-05-09 14:08 | 29.83676 | -131.22160 | 39215 ft | 454 kts | 79° |
| 2026-05-09 14:08 | 29.85091 | -131.15080 | 39212 ft | 455 kts | 79° |
| 2026-05-09 14:09 | 29.86509 | -131.07980 | 39209 ft | 454 kts | 79° |
| 2026-05-09 14:09 | 29.87916 | -131.00915 | 39215 ft | 453 kts | 79° |
| 2026-05-09 14:10 | 29.90025 | -130.90283 | 39215 ft | 454 kts | 79° |
| 2026-05-09 14:11 | 29.91427 | -130.83186 | 39219 ft | 454 kts | 79° |
| 2026-05-09 14:11 | 29.92823 | -130.76102 | 39216 ft | 455 kts | 79° |
| 2026-05-09 14:12 | 29.94217 | -130.69000 | 39213 ft | 456 kts | 79° |
| 2026-05-09 14:12 | 29.95615 | -130.61861 | 39217 ft | 455 kts | 79° |
| 2026-05-09 14:13 | 29.97003 | -130.54747 | 39214 ft | 455 kts | 78° |
| 2026-05-09 14:15 | 30.02504 | -130.26331 | 39215 ft | 454 kts | 79° |
| 2026-05-09 14:15 | 30.03871 | -130.19217 | 39215 ft | 455 kts | 79° |
| 2026-05-09 14:16 | 30.05231 | -130.12118 | 39215 ft | 455 kts | 79° |
| 2026-05-09 14:16 | 30.06594 | -130.04980 | 39215 ft | 455 kts | 79° |
| 2026-05-09 14:17 | 30.07956 | -129.97835 | 39212 ft | 455 kts | 78° |
| 2026-05-09 14:17 | 30.09306 | -129.90721 | 39212 ft | 456 kts | 78° |
| 2026-05-09 14:18 | 30.10666 | -129.83543 | 39213 ft | 457 kts | 78° |
| 2026-05-09 14:18 | 30.12015 | -129.76387 | 39214 ft | 457 kts | 78° |
| 2026-05-09 14:19 | 30.13357 | -129.69241 | 39213 ft | 456 kts | 78° |
| 2026-05-09 14:19 | 30.14701 | -129.62077 | 39210 ft | 458 kts | 78° |
| 2026-05-09 14:20 | 30.16036 | -129.54935 | 39212 ft | 457 kts | 78° |
| 2026-05-09 14:20 | 30.17374 | -129.47757 | 39212 ft | 457 kts | 78° |
| 2026-05-09 14:21 | 30.19374 | -129.36977 | 39213 ft | 457 kts | 78° |
| 2026-05-09 14:21 | 30.20695 | -129.29833 | 39215 ft | 458 kts | 78° |
| 2026-05-09 14:22 | 30.22015 | -129.22662 | 39215 ft | 457 kts | 78° |
| 2026-05-09 14:22 | 30.23332 | -129.15491 | 39214 ft | 456 kts | 78° |
| 2026-05-09 14:23 | 30.24648 | -129.08305 | 39213 ft | 456 kts | 78° |
| 2026-05-09 14:23 | 30.25955 | -129.01150 | 39218 ft | 457 kts | 78° |
| 2026-05-09 14:24 | 30.27268 | -128.93941 | 39213 ft | 456 kts | 78° |
| 2026-05-09 14:24 | 30.28561 | -128.86807 | 39212 ft | 457 kts | 78° |
| 2026-05-09 14:25 | 30.29861 | -128.79607 | 39208 ft | 457 kts | 78° |
| 2026-05-09 14:25 | 30.31151 | -128.72438 | 39206 ft | 457 kts | 78° |
| 2026-05-09 14:26 | 30.32437 | -128.65268 | 39205 ft | 456 kts | 78° |
| 2026-05-09 14:26 | 30.33728 | -128.58048 | 39204 ft | 456 kts | 78° |
| 2026-05-09 14:27 | 30.35007 | -128.50874 | 39202 ft | 456 kts | 78° |
| 2026-05-09 14:27 | 30.36279 | -128.43709 | 39196 ft | 457 kts | 78° |
| 2026-05-09 14:28 | 30.37549 | -128.36533 | 39189 ft | 456 kts | 77° |
| 2026-05-09 14:28 | 30.38815 | -128.29355 | 39188 ft | 456 kts | 78° |
| 2026-05-09 14:29 | 30.40075 | -128.22177 | 39186 ft | 455 kts | 78° |
| 2026-05-09 14:29 | 30.41329 | -128.15025 | 39184 ft | 455 kts | 78° |
| 2026-05-09 14:30 | 30.42588 | -128.07822 | 39182 ft | 455 kts | 78° |
| 2026-05-09 14:30 | 30.43831 | -128.00690 | 39181 ft | 455 kts | 78° |
| 2026-05-09 14:31 | 30.45079 | -127.93500 | 39183 ft | 455 kts | 78° |
| 2026-05-09 14:31 | 30.46324 | -127.86300 | 39183 ft | 455 kts | 78° |
| 2026-05-09 14:32 | 30.47564 | -127.79112 | 39181 ft | 455 kts | 78° |
| 2026-05-09 14:32 | 30.48800 | -127.71908 | 39182 ft | 455 kts | 78° |
| 2026-05-09 14:33 | 30.50021 | -127.64765 | 39180 ft | 455 kts | 78° |
| 2026-05-09 14:33 | 30.51254 | -127.57537 | 39182 ft | 456 kts | 78° |
| 2026-05-09 14:34 | 30.52467 | -127.50393 | 39291 ft | 454 kts | 78° |
| 2026-05-09 14:34 | 30.53079 | -127.46780 | 39451 ft | 454 kts | 78° |
| 2026-05-09 14:34 | 30.53680 | -127.43228 | 39619 ft | 454 kts | 78° |
| 2026-05-09 14:35 | 30.54290 | -127.39615 | 39792 ft | 455 kts | 78° |
| 2026-05-09 14:35 | 30.54894 | -127.36031 | 39964 ft | 455 kts | 77° |
| 2026-05-09 14:35 | 30.55504 | -127.32410 | 40133 ft | 456 kts | 78° |
| 2026-05-09 14:35 | 30.56103 | -127.28848 | 40303 ft | 456 kts | 78° |
| 2026-05-09 14:36 | 30.56715 | -127.25204 | 40474 ft | 456 kts | 78° |
| 2026-05-09 14:36 | 30.57315 | -127.21627 | 40642 ft | 455 kts | 78° |
| 2026-05-09 14:36 | 30.57914 | -127.18046 | 40808 ft | 454 kts | 78° |
| 2026-05-09 14:36 | 30.58512 | -127.14460 | 40983 ft | 453 kts | 78° |
| 2026-05-09 14:37 | 30.59108 | -127.10868 | 41146 ft | 453 kts | 78° |
| 2026-05-09 14:37 | 30.59705 | -127.07271 | 41175 ft | 455 kts | 78° |
| 2026-05-09 14:37 | 30.60894 | -127.00109 | 41173 ft | 452 kts | 78° |
| 2026-05-09 14:38 | 30.62078 | -126.92949 | 41173 ft | 452 kts | 78° |
| 2026-05-09 14:38 | 30.63258 | -126.85796 | 41173 ft | 453 kts | 78° |
| 2026-05-09 14:39 | 30.64438 | -126.78597 | 41172 ft | 453 kts | 78° |
| 2026-05-09 14:39 | 30.65607 | -126.71448 | 41172 ft | 453 kts | 78° |
| 2026-05-09 14:40 | 30.66777 | -126.64262 | 41169 ft | 454 kts | 77° |
| 2026-05-09 14:40 | 30.67944 | -126.57070 | 41171 ft | 453 kts | 77° |
| 2026-05-09 14:41 | 30.69104 | -126.49887 | 41171 ft | 453 kts | 77° |
| 2026-05-09 14:41 | 30.70259 | -126.42725 | 41171 ft | 453 kts | 77° |
| 2026-05-09 14:42 | 30.71414 | -126.35529 | 41168 ft | 453 kts | 77° |
| 2026-05-09 14:42 | 30.72558 | -126.28367 | 41166 ft | 453 kts | 78° |
| 2026-05-09 14:43 | 30.73700 | -126.21193 | 41174 ft | 453 kts | 78° |
| 2026-05-09 14:43 | 30.74851 | -126.13958 | 41167 ft | 454 kts | 77° |
| 2026-05-09 14:44 | 30.75988 | -126.06767 | 41170 ft | 453 kts | 77° |
| 2026-05-09 14:44 | 30.77115 | -125.99608 | 41176 ft | 452 kts | 77° |
| 2026-05-09 14:45 | 30.77679 | -125.96021 | 41277 ft | 450 kts | 77° |
| 2026-05-09 14:45 | 30.78239 | -125.92452 | 41372 ft | 447 kts | 77° |
| 2026-05-09 14:45 | 30.78793 | -125.88921 | 41476 ft | 446 kts | 77° |
| 2026-05-09 14:45 | 30.79349 | -125.85374 | 41580 ft | 446 kts | 77° |
| 2026-05-09 14:46 | 30.79902 | -125.81838 | 41681 ft | 447 kts | 77° |
| 2026-05-09 14:46 | 30.80457 | -125.78277 | 41780 ft | 448 kts | 77° |
| 2026-05-09 14:46 | 30.81555 | -125.71198 | 41983 ft | 448 kts | 77° |
| 2026-05-09 14:47 | 30.82109 | -125.67625 | 42085 ft | 448 kts | 77° |
| 2026-05-09 14:47 | 30.82655 | -125.64095 | 42186 ft | 447 kts | 77° |
| 2026-05-09 14:47 | 30.83207 | -125.60514 | 42293 ft | 447 kts | 77° |
| 2026-05-09 14:47 | 30.83755 | -125.56956 | 42391 ft | 447 kts | 77° |
| 2026-05-09 14:48 | 30.84845 | -125.49863 | 42599 ft | 446 kts | 77° |
| 2026-05-09 14:48 | 30.85926 | -125.42785 | 42802 ft | 446 kts | 77° |
| 2026-05-09 14:49 | 30.87008 | -125.35671 | 42618 ft | 448 kts | 77° |
| 2026-05-09 14:49 | 30.87547 | -125.32114 | 42415 ft | 445 kts | 77° |
| 2026-05-09 14:49 | 30.88079 | -125.28601 | 42206 ft | 443 kts | 77° |
| 2026-05-09 14:50 | 30.88611 | -125.25089 | 41881 ft | 447 kts | 77° |
| 2026-05-09 14:50 | 30.89158 | -125.21483 | 41541 ft | 449 kts | 77° |
| 2026-05-09 14:50 | 30.89695 | -125.17928 | 41212 ft | 449 kts | 77° |
| 2026-05-09 14:50 | 30.90228 | -125.14388 | 41155 ft | 445 kts | 77° |
| 2026-05-09 14:51 | 30.91305 | -125.07221 | 41153 ft | 450 kts | 77° |
| 2026-05-09 14:51 | 30.92383 | -125.00032 | 41153 ft | 450 kts | 77° |
| 2026-05-09 14:52 | 30.93447 | -124.92897 | 41152 ft | 449 kts | 77° |
| 2026-05-09 14:52 | 30.94506 | -124.85741 | 41150 ft | 449 kts | 77° |
| 2026-05-09 14:53 | 30.95564 | -124.78571 | 41149 ft | 448 kts | 77° |
| 2026-05-09 14:53 | 30.96616 | -124.71415 | 41149 ft | 448 kts | 77° |
| 2026-05-09 14:54 | 30.97657 | -124.64307 | 41144 ft | 448 kts | 77° |
| 2026-05-09 14:54 | 30.98698 | -124.57186 | 41142 ft | 448 kts | 77° |
| 2026-05-09 14:55 | 30.99738 | -124.50043 | 41144 ft | 448 kts | 77° |
| 2026-05-09 14:55 | 31.00780 | -124.42860 | 41139 ft | 448 kts | 77° |
| 2026-05-09 14:56 | 31.01814 | -124.35693 | 41139 ft | 448 kts | 77° |
| 2026-05-09 14:56 | 31.02840 | -124.28559 | 41140 ft | 448 kts | 77° |
| 2026-05-09 14:57 | 31.03857 | -124.21452 | 41138 ft | 448 kts | 77° |
| 2026-05-09 14:57 | 31.04875 | -124.14289 | 41133 ft | 447 kts | 78° |
| 2026-05-09 14:58 | 31.05892 | -124.07125 | 41131 ft | 447 kts | 78° |
| 2026-05-09 14:58 | 31.06908 | -123.99956 | 41131 ft | 449 kts | 77° |
| 2026-05-09 14:59 | 31.07918 | -123.92778 | 41131 ft | 448 kts | 77° |
| 2026-05-09 14:59 | 31.08914 | -123.85665 | 41131 ft | 447 kts | 78° |
| 2026-05-09 15:00 | 31.09912 | -123.78507 | 41130 ft | 447 kts | 78° |
| 2026-05-09 15:00 | 31.10901 | -123.71388 | 41127 ft | 447 kts | 77° |
| 2026-05-09 15:01 | 31.12384 | -123.60651 | 41125 ft | 446 kts | 77° |
| 2026-05-09 15:02 | 31.13375 | -123.53546 | 41122 ft | 445 kts | 76° |
| 2026-05-09 15:02 | 31.14698 | -123.46510 | 41119 ft | 444 kts | 72° |
| 2026-05-09 15:03 | 31.16210 | -123.39531 | 41117 ft | 446 kts | 72° |
| 2026-05-09 15:03 | 31.17716 | -123.32533 | 41114 ft | 445 kts | 73° |
| 2026-05-09 15:04 | 31.19187 | -123.25521 | 41119 ft | 445 kts | 73° |
| 2026-05-09 15:06 | 31.24903 | -122.97451 | 41099 ft | 444 kts | 73° |
| 2026-05-09 15:06 | 31.26308 | -122.90472 | 41096 ft | 444 kts | 73° |
| 2026-05-09 15:07 | 31.27719 | -122.83446 | 41087 ft | 444 kts | 73° |
| 2026-05-09 15:07 | 31.29125 | -122.76428 | 41085 ft | 444 kts | 73° |
| 2026-05-09 15:08 | 31.30524 | -122.69405 | 41083 ft | 444 kts | 73° |
| 2026-05-09 15:08 | 31.32611 | -122.58912 | 41081 ft | 444 kts | 73° |
| 2026-05-09 15:10 | 31.38148 | -122.30845 | 41071 ft | 443 kts | 74° |
| 2026-05-09 15:11 | 31.39525 | -122.23809 | 41069 ft | 444 kts | 74° |
| 2026-05-09 15:11 | 31.40892 | -122.16805 | 41067 ft | 443 kts | 74° |
| 2026-05-09 15:12 | 31.42262 | -122.09767 | 41065 ft | 444 kts | 74° |
| 2026-05-09 15:12 | 31.43626 | -122.02730 | 41060 ft | 445 kts | 74° |
| 2026-05-09 15:13 | 31.44982 | -121.95714 | 41058 ft | 444 kts | 74° |
| 2026-05-09 15:13 | 31.46338 | -121.88667 | 41058 ft | 444 kts | 74° |
| 2026-05-09 15:14 | 31.47693 | -121.81608 | 41056 ft | 443 kts | 74° |
| 2026-05-09 15:14 | 31.49032 | -121.74610 | 41057 ft | 443 kts | 74° |
| 2026-05-09 15:15 | 31.50370 | -121.67584 | 41055 ft | 443 kts | 74° |
| 2026-05-09 15:15 | 31.51712 | -121.60518 | 41055 ft | 442 kts | 74° |
| 2026-05-09 15:16 | 31.53042 | -121.53506 | 41050 ft | 443 kts | 74° |
| 2026-05-09 15:16 | 31.54375 | -121.46458 | 41050 ft | 443 kts | 74° |
| 2026-05-09 15:17 | 31.55808 | -121.39465 | 41047 ft | 441 kts | 69° |
| 2026-05-09 15:17 | 31.57858 | -121.32745 | 41042 ft | 438 kts | 65° |
| 2026-05-09 15:18 | 31.60159 | -121.26165 | 41045 ft | 437 kts | 64° |
| 2026-05-09 15:18 | 31.62509 | -121.19550 | 41042 ft | 438 kts | 64° |
| 2026-05-09 15:19 | 31.64822 | -121.12964 | 41038 ft | 438 kts | 64° |
| 2026-05-09 15:19 | 31.67122 | -121.06353 | 41039 ft | 439 kts | 65° |
| 2026-05-09 15:20 | 31.70552 | -120.96405 | 41033 ft | 439 kts | 65° |
| 2026-05-09 15:21 | 31.72830 | -120.89769 | 41036 ft | 438 kts | 65° |
| 2026-05-09 15:21 | 31.75105 | -120.83131 | 41028 ft | 438 kts | 65° |
| 2026-05-09 15:22 | 31.77367 | -120.76514 | 41029 ft | 438 kts | 65° |
| 2026-05-09 15:22 | 31.79636 | -120.69865 | 41025 ft | 439 kts | 65° |
| 2026-05-09 15:23 | 31.81894 | -120.63234 | 41026 ft | 438 kts | 65° |
| 2026-05-09 15:23 | 31.84153 | -120.56586 | 41023 ft | 438 kts | 65° |
| 2026-05-09 15:24 | 31.86410 | -120.49928 | 41020 ft | 439 kts | 65° |
| 2026-05-09 15:24 | 31.88651 | -120.43303 | 41018 ft | 439 kts | 65° |
| 2026-05-09 15:25 | 31.90898 | -120.36649 | 41017 ft | 438 kts | 65° |
| 2026-05-09 15:25 | 31.93225 | -120.30006 | 41018 ft | 437 kts | 62° |
| 2026-05-09 15:26 | 31.96393 | -120.24030 | 41017 ft | 431 kts | 48° |
| 2026-05-09 15:26 | 31.98339 | -120.21340 | 41015 ft | 430 kts | 45° |
| 2026-05-09 15:26 | 32.02409 | -120.16225 | 41010 ft | 429 kts | 43° |
| 2026-05-09 15:27 | 32.06548 | -120.11148 | 41010 ft | 430 kts | 43° |
| 2026-05-09 15:27 | 32.10698 | -120.05998 | 41011 ft | 430 kts | 44° |
| 2026-05-09 15:28 | 32.14778 | -120.00872 | 41008 ft | 429 kts | 44° |
| 2026-05-09 15:28 | 32.18851 | -119.95722 | 41008 ft | 429 kts | 44° |
| 2026-05-09 15:29 | 32.22892 | -119.90596 | 41007 ft | 430 kts | 44° |
| 2026-05-09 15:29 | 32.26970 | -119.85412 | 41007 ft | 430 kts | 44° |
| 2026-05-09 15:30 | 32.31036 | -119.80236 | 41010 ft | 430 kts | 44° |
| 2026-05-09 15:30 | 32.35086 | -119.75075 | 41014 ft | 431 kts | 44° |
| 2026-05-09 15:31 | 32.39159 | -119.69872 | 41014 ft | 431 kts | 44° |
| 2026-05-09 15:31 | 32.43237 | -119.64661 | 41009 ft | 431 kts | 44° |
| 2026-05-09 15:32 | 32.47317 | -119.59440 | 41012 ft | 431 kts | 44° |
| 2026-05-09 15:32 | 32.51373 | -119.54240 | 41007 ft | 432 kts | 44° |
| 2026-05-09 15:33 | 32.55432 | -119.49028 | 41004 ft | 431 kts | 44° |
| 2026-05-09 15:33 | 32.59515 | -119.43778 | 40994 ft | 432 kts | 44° |
| 2026-05-09 15:34 | 32.63580 | -119.38543 | 40995 ft | 432 kts | 44° |
| 2026-05-09 15:34 | 32.67623 | -119.33324 | 40993 ft | 432 kts | 44° |
| 2026-05-09 15:35 | 32.71707 | -119.28053 | 40991 ft | 433 kts | 44° |
| 2026-05-09 15:35 | 32.75765 | -119.22805 | 40986 ft | 434 kts | 44° |
| 2026-05-09 15:36 | 32.79845 | -119.17520 | 40984 ft | 433 kts | 44° |
| 2026-05-09 15:36 | 32.83899 | -119.12260 | 40980 ft | 433 kts | 44° |
| 2026-05-09 15:37 | 32.87973 | -119.06972 | 40974 ft | 433 kts | 44° |
| 2026-05-09 15:37 | 32.92027 | -119.01697 | 40427 ft | 429 kts | 44° |
| 2026-05-09 15:38 | 32.94034 | -118.99084 | 39316 ft | 437 kts | 44° |
| 2026-05-09 15:38 | 32.96120 | -118.96371 | 38124 ft | 445 kts | 44° |
| 2026-05-09 15:38 | 32.98193 | -118.93669 | 37629 ft | 438 kts | 44° |
| 2026-05-09 15:38 | 33.00213 | -118.91027 | 37305 ft | 428 kts | 44° |
| 2026-05-09 15:39 | 33.02201 | -118.88424 | 36932 ft | 423 kts | 44° |
| 2026-05-09 15:39 | 33.04193 | -118.85816 | 36382 ft | 422 kts | 44° |
| 2026-05-09 15:39 | 33.06153 | -118.83250 | 35875 ft | 422 kts | 44° |
| 2026-05-09 15:39 | 33.08159 | -118.80630 | 35324 ft | 429 kts | 44° |
| 2026-05-09 15:40 | 33.10164 | -118.78008 | 34906 ft | 430 kts | 44° |
| 2026-05-09 15:40 | 33.12176 | -118.75372 | 34455 ft | 424 kts | 44° |
| 2026-05-09 15:40 | 33.14124 | -118.72813 | 34004 ft | 418 kts | 44° |
| 2026-05-09 15:40 | 33.16075 | -118.70250 | 33553 ft | 412 kts | 44° |
| 2026-05-09 15:41 | 33.17968 | -118.67760 | 33137 ft | 409 kts | 44° |
| 2026-05-09 15:41 | 33.19908 | -118.65210 | 32666 ft | 413 kts | 44° |
| 2026-05-09 15:41 | 33.21835 | -118.62678 | 32209 ft | 412 kts | 44° |
| 2026-05-09 15:41 | 33.23730 | -118.60182 | 31768 ft | 406 kts | 44° |
| 2026-05-09 15:42 | 33.25603 | -118.57713 | 31331 ft | 401 kts | 44° |
| 2026-05-09 15:42 | 33.27474 | -118.55242 | 30892 ft | 395 kts | 44° |
| 2026-05-09 15:42 | 33.29293 | -118.52842 | 30465 ft | 390 kts | 44° |
| 2026-05-09 15:42 | 33.31101 | -118.50454 | 30038 ft | 386 kts | 44° |
| 2026-05-09 15:43 | 33.32873 | -118.48048 | 29620 ft | 393 kts | 46° |
| 2026-05-09 15:43 | 33.34473 | -118.45386 | 29194 ft | 397 kts | 56° |
| 2026-05-09 15:43 | 33.35607 | -118.42400 | 28733 ft | 398 kts | 68° |
| 2026-05-09 15:43 | 33.36226 | -118.39175 | 28302 ft | 396 kts | 78° |
| 2026-05-09 15:44 | 33.36468 | -118.35899 | 27849 ft | 394 kts | 84° |
| 2026-05-09 15:44 | 33.36387 | -118.32630 | 27408 ft | 393 kts | 92° |
| 2026-05-09 15:44 | 33.36056 | -118.29430 | 26974 ft | 396 kts | 95° |
| 2026-05-09 15:44 | 33.35602 | -118.26159 | 26531 ft | 400 kts | 97° |
| 2026-05-09 15:45 | 33.35115 | -118.22922 | 26065 ft | 396 kts | 97° |
| 2026-05-09 15:45 | 33.34623 | -118.19685 | 25608 ft | 392 kts | 97° |
| 2026-05-09 15:45 | 33.34127 | -118.16534 | 25139 ft | 388 kts | 98° |
| 2026-05-09 15:45 | 33.33607 | -118.13374 | 24686 ft | 383 kts | 98° |
| 2026-05-09 15:46 | 33.33094 | -118.10295 | 24252 ft | 379 kts | 98° |
| 2026-05-09 15:46 | 33.32586 | -118.07218 | 23825 ft | 374 kts | 98° |
| 2026-05-09 15:46 | 33.32090 | -118.04180 | 23404 ft | 370 kts | 98° |
| 2026-05-09 15:46 | 33.31611 | -118.01220 | 22975 ft | 367 kts | 98° |
| 2026-05-09 15:47 | 33.31127 | -117.98195 | 22555 ft | 369 kts | 98° |
| 2026-05-09 15:47 | 33.30653 | -117.95203 | 22131 ft | 372 kts | 98° |
| 2026-05-09 15:47 | 33.30170 | -117.92162 | 21700 ft | 368 kts | 98° |
| 2026-05-09 15:47 | 33.29700 | -117.89201 | 21268 ft | 365 kts | 98° |
| 2026-05-09 15:48 | 33.29230 | -117.86242 | 20841 ft | 361 kts | 98° |
| 2026-05-09 15:48 | 33.28766 | -117.83320 | 20420 ft | 357 kts | 98° |
| 2026-05-09 15:48 | 33.28303 | -117.80414 | 19997 ft | 354 kts | 98° |
| 2026-05-09 15:48 | 33.27851 | -117.77575 | 19575 ft | 351 kts | 99° |
| 2026-05-09 15:49 | 33.27395 | -117.74712 | 19175 ft | 348 kts | 98° |
| 2026-05-09 15:49 | 33.26943 | -117.71875 | 18770 ft | 353 kts | 99° |
| 2026-05-09 15:49 | 33.26487 | -117.69014 | 18352 ft | 352 kts | 99° |
| 2026-05-09 15:49 | 33.26033 | -117.66170 | 17925 ft | 348 kts | 99° |
| 2026-05-09 15:50 | 33.25548 | -117.63325 | 17533 ft | 345 kts | 102° |
| 2026-05-09 15:50 | 33.24778 | -117.60647 | 17114 ft | 343 kts | 116° |
| 2026-05-09 15:50 | 33.23371 | -117.58359 | 16650 ft | 342 kts | 134° |
| 2026-05-09 15:50 | 33.21619 | -117.56458 | 16220 ft | 340 kts | 139° |
| 2026-05-09 15:51 | 33.19833 | -117.54650 | 15797 ft | 338 kts | 139° |
| 2026-05-09 15:51 | 33.18038 | -117.52839 | 15354 ft | 336 kts | 139° |
| 2026-05-09 15:51 | 33.16271 | -117.51033 | 14923 ft | 333 kts | 139° |
| 2026-05-09 15:51 | 33.14532 | -117.49232 | 14505 ft | 330 kts | 138° |
| 2026-05-09 15:52 | 33.10951 | -117.45901 | 13673 ft | 325 kts | 144° |
| 2026-05-09 15:52 | 33.09085 | -117.44387 | 13248 ft | 323 kts | 146° |
| 2026-05-09 15:52 | 33.07243 | -117.42911 | 12835 ft | 321 kts | 146° |
| 2026-05-09 15:53 | 33.05390 | -117.41411 | 12415 ft | 318 kts | 145° |
| 2026-05-09 15:53 | 33.03576 | -117.39920 | 12004 ft | 316 kts | 144° |
| 2026-05-09 15:53 | 33.01783 | -117.38424 | 11599 ft | 314 kts | 144° |
| 2026-05-09 15:53 | 33.00000 | -117.36928 | 11179 ft | 312 kts | 144° |
| 2026-05-09 15:54 | 32.98238 | -117.35448 | 10773 ft | 309 kts | 144° |
| 2026-05-09 15:54 | 32.96496 | -117.33984 | 10372 ft | 307 kts | 145° |
| 2026-05-09 15:54 | 32.94759 | -117.32523 | 10036 ft | 302 kts | 145° |
| 2026-05-09 15:54 | 32.93076 | -117.31110 | 9902 ft | 290 kts | 145° |
| 2026-05-09 15:55 | 32.91452 | -117.29749 | 9775 ft | 279 kts | 145° |
| 2026-05-09 15:55 | 32.89883 | -117.28441 | 9472 ft | 277 kts | 145° |
| 2026-05-09 15:55 | 32.88299 | -117.27123 | 9084 ft | 277 kts | 145° |
| 2026-05-09 15:55 | 32.86734 | -117.25822 | 8766 ft | 274 kts | 145° |
| 2026-05-09 15:56 | 32.85184 | -117.24534 | 8452 ft | 271 kts | 145° |
| 2026-05-09 15:56 | 32.83653 | -117.23261 | 8222 ft | 264 kts | 145° |
| 2026-05-09 15:56 | 32.82198 | -117.22006 | 8098 ft | 249 kts | 140° |
| 2026-05-09 15:56 | 32.81073 | -117.20524 | 7939 ft | 237 kts | 118° |
| 2026-05-09 15:57 | 32.80545 | -117.18737 | 7756 ft | 227 kts | 103° |
| 2026-05-09 15:57 | 32.80209 | -117.16932 | 7557 ft | 220 kts | 102° |
| 2026-05-09 15:57 | 32.79859 | -117.15196 | 7312 ft | 216 kts | 104° |
| 2026-05-09 15:57 | 32.79484 | -117.13479 | 7063 ft | 212 kts | 104° |
| 2026-05-09 15:58 | 32.79116 | -117.11830 | 6957 ft | 203 kts | 104° |
| 2026-05-09 15:58 | 32.78752 | -117.10204 | 6963 ft | 204 kts | 104° |
| 2026-05-09 15:58 | 32.78388 | -117.08580 | 6956 ft | 205 kts | 104° |
| 2026-05-09 15:58 | 32.78017 | -117.06929 | 6959 ft | 205 kts | 105° |
| 2026-05-09 15:59 | 32.77534 | -117.05338 | 6958 ft | 205 kts | 114° |
| 2026-05-09 15:59 | 32.76923 | -117.03803 | 6969 ft | 205 kts | 116° |
| 2026-05-09 15:59 | 32.76308 | -117.02299 | 6958 ft | 204 kts | 115° |
| 2026-05-09 15:59 | 32.75703 | -117.00780 | 6959 ft | 203 kts | 115° |
| 2026-05-09 16:00 | 32.75106 | -116.99257 | 6956 ft | 203 kts | 115° |
| 2026-05-09 16:00 | 32.74905 | -116.98745 | 6956 ft | 203 kts | 116° |
| 2026-05-09 16:00 | 32.73856 | -116.96237 | 6955 ft | 203 kts | 104° |
| 2026-05-09 16:00 | 32.73558 | -116.94604 | 6956 ft | 203 kts | 101° |
| 2026-05-09 16:01 | 32.73285 | -116.92956 | 6956 ft | 204 kts | 101° |
| 2026-05-09 16:01 | 32.73012 | -116.91316 | 6957 ft | 204 kts | 101° |
| 2026-05-09 16:01 | 32.72734 | -116.89646 | 6954 ft | 204 kts | 101° |
| 2026-05-09 16:01 | 32.72461 | -116.87998 | 6956 ft | 205 kts | 101° |
| 2026-05-09 16:02 | 32.71985 | -116.86417 | 6953 ft | 205 kts | 126° |
| 2026-05-09 16:02 | 32.69482 | -116.85359 | 6964 ft | 203 kts | 199° |
| 2026-05-09 16:02 | 32.68356 | -116.86292 | 6891 ft | 197 kts | 235° |
| 2026-05-09 16:03 | 32.67762 | -116.87763 | 6609 ft | 198 kts | 250° |
| 2026-05-09 16:03 | 32.67306 | -116.89271 | 6367 ft | 192 kts | 251° |
| 2026-05-09 16:03 | 32.66940 | -116.90806 | 5877 ft | 194 kts | 262° |
| 2026-05-09 16:03 | 32.66949 | -116.92396 | 5374 ft | 196 kts | 280° |
| 2026-05-09 16:04 | 32.67258 | -116.93948 | 4947 ft | 193 kts | 285° |
| 2026-05-09 16:04 | 32.67612 | -116.95466 | 4518 ft | 191 kts | 286° |
| 2026-05-09 16:04 | 32.67971 | -116.96973 | 4144 ft | 186 kts | 287° |
| 2026-05-09 16:04 | 32.68322 | -116.98415 | 3805 ft | 181 kts | 287° |
| 2026-05-09 16:05 | 32.68662 | -116.99804 | 3497 ft | 173 kts | 287° |
| 2026-05-09 16:05 | 32.68987 | -117.01138 | 3297 ft | 160 kts | 287° |
| 2026-05-09 16:05 | 32.69284 | -117.02342 | 3126 ft | 149 kts | 288° |
| 2026-05-09 16:05 | 32.69579 | -117.03509 | 2976 ft | 148 kts | 287° |
| 2026-05-09 16:06 | 32.69864 | -117.04675 | 2786 ft | 148 kts | 287° |
| 2026-05-09 16:06 | 32.70148 | -117.05840 | 2593 ft | 143 kts | 287° |
| 2026-05-09 16:06 | 32.70423 | -117.06978 | 2465 ft | 145 kts | 287° |
| 2026-05-09 16:06 | 32.70710 | -117.08135 | 2265 ft | 144 kts | 287° |
| 2026-05-09 16:07 | 32.71003 | -117.09283 | 2013 ft | 145 kts | 288° |
| 2026-05-09 16:07 | 32.71284 | -117.10430 | 1745 ft | 145 kts | 286° |
| 2026-05-09 16:07 | 32.71554 | -117.11575 | 1519 ft | 143 kts | 286° |
| 2026-05-09 16:07 | 32.71832 | -117.12714 | 1342 ft | 145 kts | 287° |
| 2026-05-09 16:08 | 32.72112 | -117.13860 | 1083 ft | 144 kts | 286° |
| 2026-05-09 16:08 | 32.72398 | -117.14988 | 783 ft | 142 kts | 286° |
| 2026-05-09 16:08 | 32.72668 | -117.16095 | 498 ft | 140 kts | 285° |
| 2026-05-09 16:08 | 32.72929 | -117.17202 | 244 ft | 140 kts | 285° |
| 2026-05-09 16:09 | 32.73193 | -117.18308 | 47 ft | 135 kts | 285° |
| 2026-05-09 16:09 | 32.73420 | -117.19241 | 23 ft | 90 kts | 285° |
| 2026-05-09 16:09 | 32.73552 | -117.19782 | 20 ft | 60 kts | 286° |
| 2026-05-09 16:09 | 32.73633 | -117.20121 | 20 ft | 20 kts | 284° |
| 2026-05-09 16:10 | 32.73593 | -117.20213 | 19 ft | 0 kts | 204° |
| 2026-05-09 16:10 | 32.73586 | -117.20215 | 19 ft | 1 kts | 199° |
| 2026-05-09 16:10 | 32.73582 | -117.20216 | 19 ft | 0 kts | 199° |
| 2026-05-09 16:12 | 32.73582 | -117.20217 | 19 ft | 0 kts | 198° |
| 2026-05-09 16:12 | 32.73548 | -117.20173 | 19 ft | 15 kts | 111° |
| 2026-05-09 16:12 | 32.73515 | -117.20046 | 19 ft | 14 kts | 106° |
| 2026-05-09 16:12 | 32.73490 | -117.19941 | 20 ft | 11 kts | 108° |
| 2026-05-09 16:13 | 32.73468 | -117.19857 | 20 ft | 11 kts | 105° |
| 2026-05-09 16:13 | 32.73441 | -117.19738 | 21 ft | 18 kts | 105° |
| 2026-05-09 16:13 | 32.73399 | -117.19571 | 22 ft | 19 kts | 109° |
| 2026-05-09 16:13 | 32.73373 | -117.19494 | 23 ft | 7 kts | 115° |
| 2026-05-09 16:14 | 32.73347 | -117.19447 | 23 ft | 8 kts | 140° |
| 2026-05-09 16:14 | 32.73282 | -117.19451 | 23 ft | 5 kts | 241° |
| 2026-05-09 16:14 | 32.73283 | -117.19499 | 23 ft | 4 kts | 277° |
| 2026-05-09 16:14 | 32.73286 | -117.19528 | 23 ft | 2 kts | 277° |
| 2026-05-09 16:15 | 32.73288 | -117.19544 | 23 ft | 1 kts | 276° |
| 2026-05-09 16:15 | 32.73288 | -117.19553 | 23 ft | 0 kts | 277° |
| 2026-05-09 16:15 | 32.73288 | -117.19554 | 23 ft | 0 kts | 277° |